KGLE

Gainesville Municipal Airport

Gainesville, Texas, USA
METAR KGLE 220955Z AUTO 00000KT 10SM CLR 20/19 A3001 RMK AO2 T02020190
Observed Flight Rules
May-22 @ 09:55 UTC (24 minutes ago) Visual Flight Rules
Visibility Clouds
10 miles
  • Clear skies
Temperatures Readings
Current 20°C / 68°F
Dewpoint 19°C / 66°F
Humidity 94%
Altimeter 30.01" Hg
Pressure 1016 hPa
Elevation 256
METAR KGLE 220955Z AUTO 00000KT 10SM CLR 20/19 A3001 RMK AO2 T02020190
Observed Flight Rules
May-22 @ 09:55 UTC
(24 minutes ago)
VFR
Clouds
  • Clear skies
Temperature Dewpoint
20°C / 68°F 19°C / 66°F
Humidity Altimeter Pressure
94% 30.01" Hg 1016 hPa